Time;durP1;ratioP1;P1;durP2;ratioP2;P2;SDS_P1;SDS_P2;PMS_P1;PMS_P2;Temp;Humidity;BMP_temperature;BMP_pressure;BME280_temperature;BME280_humidity;BME280_pressure;Samples;Min_cycle;Max_cycle;Signal;HPM_P1;HPM_P2
2023/06/09 04:27:25;;;;;;;13.87;7.77;;;;;;;17.83;67.56;100216.34;4317273;27;20692;-68
2023/06/09 04:29:52;;;;;;;13.73;7.67;;;;;;;18.11;66.98;100207.28;4277384;28;21768;-73
2023/06/09 04:32:19;;;;;;;17.80;7.70;;;;;;;18.17;66.47;100214.69;4285587;28;20274;-71
2023/06/09 04:34:46;;;;;;;15.70;7.73;;;;;;;18.33;65.83;100213.50;4291725;28;20256;-74
2023/06/09 04:37:13;;;;;;;19.63;8.27;;;;;;;18.40;65.36;100209.94;4282332;28;20324;-70
2023/06/09 04:39:41;;;;;;;17.20;6.87;;;;;;;18.55;65.29;100209.78;4270567;28;20234;-70
2023/06/09 04:42:08;;;;;;;17.77;8.57;;;;;;;18.54;64.86;100211.69;4274240;28;20388;-66
2023/06/09 04:44:35;;;;;;;15.83;7.93;;;;;;;18.66;65.05;100210.03;4276110;28;22884;-69
2023/06/09 04:47:03;;;;;;;18.03;8.03;;;;;;;18.82;64.26;100210.72;4279160;28;20272;-72
2023/06/09 04:49:31;;;;;;;16.23;8.10;;;;;;;18.76;64.79;100209.63;4271817;28;20226;-67
2023/06/09 04:51:59;;;;;;;15.17;7.77;;;;;;;18.99;63.84;100213.94;4272446;28;20233;-71
2023/06/09 04:54:28;;;;;;;19.93;7.77;;;;;;;19.11;63.96;100205.94;4278222;28;20994;-68
2023/06/09 04:56:57;;;;;;;15.50;7.90;;;;;;;19.15;63.67;100213.53;4274803;28;21893;-71
2023/06/09 04:59:24;;;;;;;15.00;8.07;;;;;;;19.23;63.04;100208.91;4278752;28;20237;-71
2023/06/09 05:01:52;;;;;;;21.13;8.13;;;;;;;19.15;63.27;100208.06;4280360;28;20854;-71
2023/06/09 05:04:19;;;;;;;12.40;7.47;;;;;;;19.30;62.92;100209.75;4279673;28;20956;-67
2023/06/09 05:06:46;;;;;;;14.20;7.10;;;;;;;19.49;62.24;100210.81;4290151;28;20385;-70
2023/06/09 05:09:12;;;;;;;18.33;7.53;;;;;;;19.63;61.86;100204.25;4276858;28;20233;-75
2023/06/09 05:11:39;;;;;;;20.60;7.30;;;;;;;19.84;61.20;100210.56;4282696;28;20294;-69
2023/06/09 05:14:05;;;;;;;17.67;7.03;;;;;;;20.07;60.44;100218.34;4278973;28;20282;-71
2023/06/09 05:16:34;;;;;;;12.03;6.93;;;;;;;20.14;60.33;100209.25;4285094;28;23614;-69
2023/06/09 05:19:01;;;;;;;13.73;6.70;;;;;;;20.30;59.87;100210.66;4285290;28;20235;-73
2023/06/09 05:21:28;;;;;;;13.00;7.10;;;;;;;20.59;58.47;100210.09;4270848;28;21516;-70
2023/06/09 05:23:55;;;;;;;11.73;5.87;;;;;;;20.87;58.18;100206.19;4272238;28;20640;-74
2023/06/09 05:26:21;;;;;;;18.20;7.03;;;;;;;21.53;55.98;100208.63;4277305;28;20828;-72
2023/06/09 05:28:48;;;;;;;12.87;6.23;;;;;;;21.82;55.51;100209.88;4268988;28;20230;-70
2023/06/09 05:31:16;;;;;;;13.33;5.30;;;;;;;22.42;53.47;100204.78;4273776;28;20225;-68
2023/06/09 05:33:43;;;;;;;14.47;6.03;;;;;;;22.79;52.15;100205.53;4284152;28;20225;-68
2023/06/09 05:36:12;;;;;;;14.73;6.20;;;;;;;22.99;51.48;100207.19;4293845;28;20235;-68
2023/06/09 05:38:38;;;;;;;14.77;5.53;;;;;;;23.22;50.98;100206.41;4268546;28;20241;-67
2023/06/09 05:41:05;;;;;;;10.70;5.70;;;;;;;23.52;49.97;100207.44;4265421;28;21359;-69
2023/06/09 05:43:32;;;;;;;15.30;5.03;;;;;;;23.64;49.66;100211.03;4273384;28;20309;-67
2023/06/09 05:45:59;;;;;;;11.13;5.67;;;;;;;23.71;49.59;100202.63;4278430;28;20230;-66
2023/06/09 05:48:26;;;;;;;11.50;5.33;;;;;;;24.25;48.02;100209.91;4257633;28;20225;-66
2023/06/09 05:50:52;;;;;;;16.35;5.95;;;;;;;24.66;47.10;100202.44;4261375;28;21150;-67
2023/06/09 05:53:19;;;;;;;11.05;5.00;;;;;;;24.77;46.80;100200.75;4272209;28;20237;-65
2023/06/09 05:55:47;;;;;;;14.60;5.43;;;;;;;25.06;46.08;100200.72;4267667;28;20936;-67
2023/06/09 05:58:14;;;;;;;12.65;6.07;;;;;;;25.65;44.95;100202.25;4249915;28;20693;-66
2023/06/09 06:00:41;;;;;;;16.35;5.05;;;;;;;25.83;44.25;100210.31;4258886;28;20284;-65
2023/06/09 06:03:10;;;;;;;9.10;4.82;;;;;;;26.15;43.37;100201.34;4263612;28;20371;-66
2023/06/09 06:05:37;;;;;;;17.73;5.25;;;;;;;26.91;41.83;100207.25;4270204;28;20589;-67
2023/06/09 06:08:06;;;;;;;8.27;4.78;;;;;;;26.97;42.05;100207.03;4262257;28;20243;-66
2023/06/09 06:10:32;;;;;;;16.95;5.03;;;;;;;27.66;40.49;100202.63;4273186;28;20274;-66
2023/06/09 06:13:01;;;;;;;10.93;5.03;;;;;;;27.38;40.79;100203.78;4276860;28;20233;-66
2023/06/09 06:15:27;;;;;;;8.53;5.10;;;;;;;27.12;40.65;100209.13;4267056;28;20428;-67
2023/06/09 06:17:54;;;;;;;8.95;4.00;;;;;;;26.99;40.54;100196.50;4268704;28;20550;-66
2023/06/09 06:20:20;;;;;;;16.88;4.25;;;;;;;27.00;40.94;100195.41;4257302;28;20425;-66
2023/06/09 06:22:47;;;;;;;13.07;4.80;;;;;;;27.10;41.13;100197.44;4272581;28;25066;-66
2023/06/09 06:25:14;;;;;;;15.40;4.93;;;;;;;28.19;38.63;100195.47;4276402;28;22027;-65
2023/06/09 06:27:41;;;;;;;11.88;5.10;;;;;;;27.79;39.37;100198.56;4254077;28;25621;-68
2023/06/09 06:30:09;;;;;;;11.65;4.45;;;;;;;28.06;39.07;100196.78;4266514;28;21345;-66
2023/06/09 06:32:38;;;;;;;11.80;4.70;;;;;;;27.96;38.72;100190.03;4239541;28;20227;-66
2023/06/09 06:35:05;;;;;;;13.63;4.60;;;;;;;28.21;38.82;100201.59;4260181;28;21737;-66
2023/06/09 06:37:33;;;;;;;15.25;4.75;;;;;;;29.02;37.68;100191.81;4260133;28;22021;-72
2023/06/09 06:39:59;;;;;;;13.27;4.88;;;;;;;28.95;37.13;100194.06;4254123;28;20297;-64
2023/06/09 06:42:26;;;;;;;10.43;4.28;;;;;;;27.96;38.98;100186.41;4261914;28;21931;-64
2023/06/09 06:46:31;;;;;;;11.00;4.03;;;;;;;27.74;39.06;100197.66;4270050;27;21502;-65
2023/06/09 06:48:58;;;;;;;9.98;4.10;;;;;;;28.41;37.98;100190.53;4243528;28;20720;-68
2023/06/09 06:51:24;;;;;;;13.85;3.80;;;;;;;27.93;38.10;100186.94;4247686;28;20230;-66
2023/06/09 06:53:51;;;;;;;10.57;3.88;;;;;;;28.44;37.20;100191.94;4247493;28;20293;-66
2023/06/09 06:56:17;;;;;;;9.90;3.70;;;;;;;28.60;37.17;100201.16;4249669;28;20230;-67
2023/06/09 06:58:44;;;;;;;5.10;2.88;;;;;;;28.11;36.69;100192.09;4236373;28;21586;-72
2023/06/09 07:01:11;;;;;;;5.10;2.80;;;;;;;27.99;37.13;100192.28;4236830;28;20259;-73
2023/06/09 07:03:39;;;;;;;7.47;3.55;;;;;;;27.60;38.51;100197.31;4232423;28;22565;-68
2023/06/09 07:06:08;;;;;;;14.77;3.53;;;;;;;27.27;38.74;100188.13;4231877;28;20323;-72
2023/06/09 07:08:34;;;;;;;4.53;3.00;;;;;;;27.48;38.31;100191.94;4218232;28;20239;-71
2023/06/09 07:11:01;;;;;;;4.70;2.85;;;;;;;27.92;37.61;100199.16;4237095;28;20610;-66
2023/06/09 07:13:28;;;;;;;7.07;3.20;;;;;;;27.99;37.38;100195.06;4247497;28;20231;-65
2023/06/09 07:15:55;;;;;;;7.13;2.90;;;;;;;28.00;37.44;100195.88;4247698;28;20289;-68
2023/06/09 07:18:21;;;;;;;8.30;3.10;;;;;;;28.63;36.26;100200.63;4245122;28;20659;-66
2023/06/09 07:20:48;;;;;;;5.75;2.47;;;;;;;28.91;35.87;100193.78;4236213;28;20241;-65
2023/06/09 07:23:15;;;;;;;8.63;3.30;;;;;;;28.35;37.05;100207.50;4248411;28;20338;-65
2023/06/09 07:25:41;;;;;;;5.47;3.03;;;;;;;28.19;37.60;100196.28;4242451;28;20689;-65
2023/06/09 07:28:08;;;;;;;4.70;2.73;;;;;;;28.02;37.34;100196.47;4233249;28;20361;-67
2023/06/09 07:30:35;;;;;;;8.80;3.20;;;;;;;26.66;39.56;100192.78;4242811;28;20231;-64
2023/06/09 07:33:01;;;;;;;6.70;2.97;;;;;;;27.12;39.25;100183.25;4245392;28;20228;-68
2023/06/09 07:35:29;;;;;;;10.40;3.10;;;;;;;27.19;39.09;100181.97;4240117;28;20231;-64
2023/06/09 07:37:56;;;;;;;9.10;3.15;;;;;;;27.88;38.35;100193.31;4229827;28;20242;-66
2023/06/09 07:40:23;;;;;;;6.07;3.58;;;;;;;28.05;37.71;100195.06;4248377;28;21480;-68
2023/06/09 07:42:50;;;;;;;6.80;3.00;;;;;;;27.95;38.56;100193.91;4253751;28;25987;-69
2023/06/09 07:45:17;;;;;;;10.68;3.42;;;;;;;27.33;39.30;100185.13;4257461;28;21245;-68
2023/06/09 07:47:44;;;;;;;5.00;2.97;;;;;;;27.51;39.00;100185.84;4233695;28;20238;-68
2023/06/09 07:50:11;;;;;;;5.13;3.10;;;;;;;27.74;38.13;100181.00;4232501;28;20315;-66
2023/06/09 07:52:38;;;;;;;7.15;3.60;;;;;;;27.60;38.53;100186.19;4253053;28;21770;-72
2023/06/09 07:55:09;;;;;;;5.37;3.03;;;;;;;27.89;38.03;100183.84;4240041;28;20404;-67
2023/06/09 07:57:41;;;;;;;8.77;3.65;;;;;;;27.49;38.82;100183.34;4226666;28;25566;-70
2023/06/09 08:00:08;;;;;;;7.20;3.33;;;;;;;27.23;39.05;100173.94;4226826;28;20239;-66
2023/06/09 08:02:40;;;;;;;10.00;3.58;;;;;;;26.35;40.56;100186.06;4233074;28;20585;-68
2023/06/09 08:05:08;;;;;;;11.97;3.73;;;;;;;26.62;40.86;100176.94;4240066;28;21294;-66
2023/06/09 08:07:35;;;;;;;9.00;3.85;;;;;;;27.08;40.12;100174.63;4235499;28;20302;-68
2023/06/09 08:10:03;;;;;;;10.13;3.63;;;;;;;26.67;40.54;100175.03;4250283;28;20277;-66
2023/06/09 08:12:31;;;;;;;12.45;3.47;;;;;;;26.71;40.74;100173.44;4233563;28;20555;-67
2023/06/09 08:14:57;;;;;;;13.55;3.90;;;;;;;26.88;40.11;100170.56;4235177;28;20235;-69
2023/06/09 08:17:24;;;;;;;12.20;3.83;;;;;;;27.28;40.05;100181.47;4225488;28;20224;-68
2023/06/09 08:19:52;;;;;;;6.57;3.47;;;;;;;27.50;39.37;100184.16;4227301;28;20235;-67
2023/06/09 08:22:18;;;;;;;7.63;2.90;;;;;;;27.14;39.12;100175.50;4232607;28;21812;-68
2023/06/09 08:24:46;;;;;;;5.93;3.47;;;;;;;26.91;39.55;100176.69;4225509;28;20236;-68
2023/06/09 08:27:13;;;;;;;6.35;3.72;;;;;;;26.60;40.28;100176.34;4230972;28;23641;-68
2023/06/09 08:29:39;;;;;;;7.50;3.60;;;;;;;26.68;40.25;100176.72;4236029;28;22907;-66
2023/06/09 08:32:07;;;;;;;7.05;3.33;;;;;;;27.13;39.89;100174.69;4247757;28;20866;-68
2023/06/09 08:34:33;;;;;;;6.23;3.77;;;;;;;27.42;39.52;100174.38;4232027;28;20274;-69
2023/06/09 08:37:01;;;;;;;5.80;3.72;;;;;;;27.94;38.58;100169.16;4235024;28;25122;-68
2023/06/09 08:39:27;;;;;;;7.30;3.97;;;;;;;27.54;39.26;100173.34;4236959;28;20252;-68
2023/06/09 08:41:56;;;;;;;9.85;3.60;;;;;;;27.56;38.80;100176.69;4240426;28;20547;-69
2023/06/09 08:44:25;;;;;;;5.25;3.45;;;;;;;27.27;38.85;100168.69;4226442;28;20446;-67
2023/06/09 08:46:53;;;;;;;8.45;3.80;;;;;;;26.79;39.71;100174.09;4208212;28;20336;-66
2023/06/09 08:49:20;;;;;;;9.43;3.70;;;;;;;26.63;40.57;100173.88;4247238;28;20629;-67
2023/06/09 08:51:47;;;;;;;10.05;4.05;;;;;;;27.21;39.57;100178.91;4231909;28;25545;-67
2023/06/09 08:54:17;;;;;;;5.67;3.57;;;;;;;27.12;39.62;100178.56;4232987;28;20626;-69
2023/06/09 08:56:47;;;;;;;6.93;3.72;;;;;;;27.09;39.48;100179.06;4202863;28;20247;-67
2023/06/09 08:59:14;;;;;;;8.73;3.67;;;;;;;26.51;40.82;100176.00;4233332;28;22790;-68
2023/06/09 09:01:41;;;;;;;5.55;3.85;;;;;;;26.39;40.95;100176.94;4232828;28;20236;-67
2023/06/09 09:04:08;;;;;;;6.63;3.70;;;;;;;26.83;40.31;100176.06;4214054;28;25259;-69
2023/06/09 09:06:37;;;;;;;6.33;3.60;;;;;;;26.98;39.33;100175.38;4250105;28;21424;-68
2023/06/09 09:09:03;;;;;;;8.43;4.00;;;;;;;26.84;39.36;100172.19;4227587;28;20235;-70
2023/06/09 09:11:31;;;;;;;6.22;4.13;;;;;;;27.28;39.12;100176.75;4237946;28;20430;-71
2023/06/09 09:13:58;;;;;;;6.07;3.90;;;;;;;27.19;38.93;100176.41;4236324;28;21155;-68
2023/06/09 09:16:32;;;;;;;5.77;3.73;;;;;;;26.57;40.00;100177.72;4233737;28;20234;-67
2023/06/09 09:18:58;;;;;;;7.03;4.15;;;;;;;26.67;39.95;100172.25;4246125;28;21288;-68
2023/06/09 09:21:25;;;;;;;9.32;3.88;;;;;;;27.02;39.39;100170.13;4244589;28;20238;-68
2023/06/09 09:23:56;;;;;;;9.87;3.93;;;;;;;27.15;39.15;100166.91;4220643;28;20774;-68
2023/06/09 09:26:28;;;;;;;5.82;3.28;;;;;;;26.72;39.25;100164.00;4193016;28;20876;-68
2023/06/09 09:28:56;;;;;;;7.57;3.65;;;;;;;26.63;38.86;100168.34;4231649;28;20298;-70
2023/06/09 09:31:43;;;;;;;6.82;3.22;;;;;;;26.52;39.05;100163.75;4241232;28;20287;-69
2023/06/09 09:34:11;;;;;;;8.13;3.22;;;;;;;26.63;38.79;100164.72;4227822;28;20298;-69
2023/06/09 09:36:45;;;;;;;5.15;3.15;;;;;;;26.39;38.99;100157.53;4209995;28;21385;-68
2023/06/09 09:39:12;;;;;;;5.63;3.00;;;;;;;26.45;39.08;100154.81;4229232;28;20433;-68
2023/06/09 09:41:38;;;;;;;6.13;3.20;;;;;;;26.60;39.34;100163.28;4234111;28;20336;-68
2023/06/09 09:44:06;;;;;;;7.67;3.43;;;;;;;26.47;38.65;100158.16;4224428;28;20239;-71
2023/06/09 09:46:36;;;;;;;9.73;3.10;;;;;;;26.55;38.45;100150.19;4231991;28;20236;-68
2023/06/09 09:49:05;;;;;;;6.50;3.40;;;;;;;26.51;38.82;100142.69;4238004;28;20614;-70
2023/06/09 09:51:33;;;;;;;8.00;3.70;;;;;;;26.60;38.53;100143.88;4230058;28;20301;-69
2023/06/09 09:54:00;;;;;;;5.63;3.33;;;;;;;26.31;38.35;100146.06;4225093;28;20238;-68
2023/06/09 09:56:27;;;;;;;7.15;3.03;;;;;;;26.65;37.54;100146.72;4221987;28;20466;-67
2023/06/09 09:58:54;;;;;;;4.87;3.30;;;;;;;26.77;36.90;100142.94;4220803;28;22013;-67
2023/06/09 10:01:23;;;;;;;5.73;3.20;;;;;;;26.95;36.74;100147.28;4213481;28;20235;-69
2023/06/09 10:03:53;;;;;;;7.17;3.10;;;;;;;26.81;36.94;100136.63;4247647;28;20238;-66
2023/06/09 10:06:24;;;;;;;6.60;2.67;;;;;;;26.92;36.03;100128.38;4232413;28;20240;-68
2023/06/09 10:08:52;;;;;;;14.40;2.83;;;;;;;27.17;35.68;100138.88;4235792;28;20777;-69
2023/06/09 10:11:20;;;;;;;5.70;2.70;;;;;;;26.95;35.11;100137.03;4225910;28;20270;-69
2023/06/09 10:13:47;;;;;;;6.22;2.60;;;;;;;27.41;35.21;100125.41;4214055;28;20233;-67
2023/06/09 10:16:13;;;;;;;5.25;3.10;;;;;;;27.51;35.32;100117.19;4214279;28;20301;-69
2023/06/09 10:18:41;;;;;;;4.18;2.70;;;;;;;27.29;34.32;100125.63;4237333;28;20233;-67
2023/06/09 10:21:09;;;;;;;4.50;2.10;;;;;;;27.08;33.07;100121.00;4221614;28;20232;-68
2023/06/09 10:23:36;;;;;;;5.20;2.40;;;;;;;27.08;33.14;100123.78;4213920;28;20236;-67
2023/06/09 10:26:03;;;;;;;8.27;2.40;;;;;;;27.64;32.99;100121.44;4216482;28;20241;-66
2023/06/09 10:28:30;;;;;;;14.00;2.70;;;;;;;27.35;34.10;100118.16;4218584;28;21389;-68
2023/06/09 10:30:57;;;;;;;6.00;2.75;;;;;;;27.26;34.53;100109.50;4220443;28;20281;-68
2023/06/09 10:33:29;;;;;;;7.95;2.80;;;;;;;27.21;34.29;100106.66;4248844;28;20527;-71
2023/06/09 10:35:58;;;;;;;8.15;2.58;;;;;;;27.51;34.82;100106.06;4215314;28;20235;-66
2023/06/09 10:38:31;;;;;;;5.25;2.60;;;;;;;27.58;34.69;100105.81;4219370;28;20234;-66
2023/06/09 10:41:06;;;;;;;8.55;2.53;;;;;;;27.35;33.83;100096.75;4222724;28;20298;-65
2023/06/09 10:43:41;;;;;;;8.07;2.60;;;;;;;26.96;34.34;100094.25;4222779;28;20441;-67
2023/06/09 10:46:12;;;;;;;4.70;2.60;;;;;;;26.94;33.79;100095.59;4238607;28;20247;-67
2023/06/09 10:48:43;;;;;;;3.33;2.20;;;;;;;27.17;34.34;100092.47;4235293;28;22915;-70
2023/06/09 10:51:25;;;;;;;8.25;2.78;;;;;;;27.66;34.42;100098.91;4240061;28;20227;-68
2023/06/09 10:54:07;;;;;;;6.47;2.65;;;;;;;27.55;33.73;100091.63;4232021;28;20317;-73
2023/06/09 10:56:41;;;;;;;6.43;3.37;;;;;;;27.48;33.33;100086.31;4224595;28;20417;-69
2023/06/09 10:59:23;;;;;;;6.67;2.83;;;;;;;27.57;34.41;100089.41;4210615;28;22156;-70
2023/06/09 11:01:59;;;;;;;3.30;2.30;;;;;;;27.71;32.77;100081.44;4232636;28;20236;-67
2023/06/09 11:04:56;;;;;;;9.98;2.78;;;;;;;27.76;34.04;100081.44;4221056;28;20311;-69
2023/06/09 11:07:25;;;;;;;5.82;2.63;;;;;;;27.22;35.11;100071.38;4252069;28;20243;-71
2023/06/09 11:09:51;;;;;;;5.53;2.60;;;;;;;27.23;34.54;100075.84;4218356;28;20318;-65
2023/06/09 11:12:27;;;;;;;6.55;2.30;;;;;;;27.32;34.14;100063.94;4232807;28;23753;-66
2023/06/09 11:14:58;;;;;;;6.15;2.28;;;;;;;27.58;33.96;100063.28;4224513;28;20251;-67
2023/06/09 11:17:40;;;;;;;6.43;2.40;;;;;;;27.03;34.36;100069.88;4235661;28;20303;-68
2023/06/09 11:20:08;;;;;;;7.07;2.70;;;;;;;27.46;34.12;100069.88;4233662;28;20248;-67
2023/06/09 11:22:41;;;;;;;5.07;2.57;;;;;;;27.88;33.28;100067.31;4225917;28;20236;-70
2023/06/09 11:25:08;;;;;;;5.93;2.83;;;;;;;28.01;33.75;100052.88;4229136;28;21707;-68
2023/06/09 11:27:35;;;;;;;7.47;2.67;;;;;;;27.75;34.06;100069.50;4248627;28;20239;-70
2023/06/09 11:30:19;;;;;;;3.60;2.28;;;;;;;27.80;34.05;100063.09;4219008;28;20302;-72
2023/06/09 11:32:56;;;;;;;4.60;2.40;;;;;;;27.90;33.05;100045.63;4224089;28;20239;-72
2023/06/09 11:35:29;;;;;;;6.53;2.57;;;;;;;27.65;32.97;100056.34;4231394;28;20246;-71
2023/06/09 11:38:00;;;;;;;4.00;2.33;;;;;;;27.42;33.00;100059.59;4239091;28;20293;-75
2023/06/09 11:40:30;;;;;;;4.90;2.27;;;;;;;27.14;33.61;100042.16;4222477;28;20242;-73
2023/06/09 11:42:57;;;;;;;4.67;2.50;;;;;;;27.29;33.64;100039.47;4228578;28;20231;-71
2023/06/09 11:45:25;;;;;;;5.33;2.50;;;;;;;27.83;33.09;100038.34;4218549;28;20263;-75
2023/06/09 11:47:57;;;;;;;8.15;2.53;;;;;;;27.99;32.91;100041.19;4234830;28;20463;-74
2023/06/09 11:50:25;;;;;;;7.50;2.20;;;;;;;28.18;32.73;100035.16;4220782;28;20307;-72
2023/06/09 11:53:06;;;;;;;6.85;2.42;;;;;;;28.16;33.07;100032.66;4215344;28;21755;-74
2023/06/09 11:55:33;;;;;;;3.45;2.40;;;;;;;28.16;32.28;100029.88;4221491;28;20234;-73
2023/06/09 11:58:01;;;;;;;5.67;2.50;;;;;;;28.55;32.49;100032.13;4222583;28;20398;-73
2023/06/09 12:00:29;;;;;;;3.00;2.33;;;;;;;28.40;31.51;100032.97;4227582;28;20579;-72
2023/06/09 12:02:57;;;;;;;4.18;2.30;;;;;;;28.28;31.39;100036.00;4204393;28;22301;-76
2023/06/09 12:05:26;;;;;;;3.28;2.13;;;;;;;28.34;30.95;100022.94;4227747;28;20557;-72
2023/06/09 12:07:53;;;;;;;7.35;2.45;;;;;;;28.27;31.11;100025.97;4215273;28;20287;-71
2023/06/09 12:10:23;;;;;;;13.40;2.75;;;;;;;28.43;31.14;100009.28;4258231;28;20235;-73
2023/06/09 12:12:51;;;;;;;5.50;2.70;;;;;;;28.34;30.92;100016.53;4217935;28;22543;-71
2023/06/09 12:15:21;;;;;;;4.60;2.70;;;;;;;28.32;30.65;100015.97;4215964;28;21871;-75
2023/06/09 12:17:49;;;;;;;4.28;2.15;;;;;;;28.24;30.49;100012.63;4220700;28;25058;-75
2023/06/09 12:20:34;;;;;;;3.30;2.08;;;;;;;28.53;30.15;100009.31;4214901;28;20228;-73
2023/06/09 12:23:12;;;;;;;11.98;2.50;;;;;;;28.34;30.72;100006.25;4220628;28;20282;-70
2023/06/09 12:25:40;;;;;;;5.85;2.50;;;;;;;28.45;30.58;100009.88;4255050;28;20239;-70
2023/06/09 12:28:24;;;;;;;6.90;2.38;;;;;;;28.58;30.16;100014.88;4219079;28;20301;-75
2023/06/09 12:30:53;;;;;;;5.95;2.22;;;;;;;28.82;29.73;100014.34;4238681;28;20456;-72
2023/06/09 12:33:22;;;;;;;6.17;2.17;;;;;;;29.27;29.64;100019.28;4231569;28;20241;-80
2023/06/09 12:35:54;;;;;;;5.78;2.22;;;;;;;29.33;29.54;100013.44;4222469;28;20780;-76
2023/06/09 12:38:25;;;;;;;5.45;2.20;;;;;;;29.08;29.16;100017.09;4228940;28;20255;-74
2023/06/09 12:40:56;;;;;;;5.90;2.40;;;;;;;28.65;29.59;100022.97;4242429;28;20237;-73
2023/06/09 12:43:24;;;;;;;8.32;2.55;;;;;;;28.55;30.14;100014.59;4213425;28;20295;-76
2023/06/09 12:45:57;;;;;;;4.55;2.13;;;;;;;28.06;31.21;100025.09;4264292;28;20297;-76
2023/06/09 12:48:24;;;;;;;6.38;2.20;;;;;;;28.10;31.17;100025.38;4229391;28;20326;-72
2023/06/09 12:50:54;;;;;;;5.75;2.40;;;;;;;28.20;31.84;100024.59;4220342;28;20232;-75
2023/06/09 12:53:21;;;;;;;8.25;2.67;;;;;;;28.51;33.89;100025.44;4219605;28;20240;-80
2023/06/09 12:55:48;;;;;;;4.68;3.35;;;;;;;28.86;35.50;100034.13;4242421;28;20339;-76
2023/06/09 12:58:15;;;;;;;10.95;4.03;;;;;;;28.73;36.65;100039.16;4234859;28;20317;-74
2023/06/09 13:00:41;;;;;;;11.17;3.90;;;;;;;28.14;38.45;100032.09;4226435;28;20893;-77
2023/06/09 13:03:10;;;;;;;9.13;4.93;;;;;;;27.70;40.16;100058.31;4215256;28;21767;-73
2023/06/09 13:05:37;;;;;;;12.70;4.72;;;;;;;27.04;42.14;100049.31;4211421;28;20291;-73
2023/06/09 13:08:04;;;;;;;14.40;4.72;;;;;;;26.82;42.53;100040.25;4237499;28;20370;-75
2023/06/09 13:10:31;;;;;;;24.47;6.10;;;;;;;26.53;43.17;100066.38;4241680;28;20248;-71
2023/06/09 13:12:58;;;;;;;12.70;5.18;;;;;;;26.32;44.09;100048.66;4232974;28;21654;-71
2023/06/09 13:15:25;;;;;;;11.23;5.60;;;;;;;26.36;44.00;100052.56;4232035;28;20389;-71
2023/06/09 13:17:53;;;;;;;9.93;5.30;;;;;;;26.64;43.42;100042.31;4227476;28;20506;-70
2023/06/09 13:20:21;;;;;;;9.10;4.83;;;;;;;26.76;42.85;100039.38;4225442;28;20236;-71
2023/06/09 13:22:49;;;;;;;13.77;5.40;;;;;;;26.62;43.07;100046.47;4226514;28;22508;-70
2023/06/09 13:25:16;;;;;;;10.60;4.90;;;;;;;26.42;43.50;100045.16;4241257;28;20241;-73
2023/06/09 13:27:44;;;;;;;9.17;4.57;;;;;;;26.30;43.29;100030.59;4228988;28;20426;-72
2023/06/09 13:30:11;;;;;;;14.90;5.17;;;;;;;26.34;43.55;100024.28;4232246;28;20893;-76
2023/06/09 13:32:39;;;;;;;5.67;4.33;;;;;;;26.32;43.19;100023.69;4227187;28;20614;-75
2023/06/09 13:35:06;;;;;;;12.13;4.17;;;;;;;26.61;42.46;100036.44;4229145;28;22155;-76
2023/06/09 13:37:34;;;;;;;9.67;4.20;;;;;;;26.72;42.16;100027.09;4217047;28;20351;-73
2023/06/09 13:40:00;;;;;;;10.63;4.20;;;;;;;27.01;41.34;100024.00;4237845;28;21607;-73
2023/06/09 13:42:27;;;;;;;11.37;4.30;;;;;;;27.16;41.78;100029.66;4223160;28;20307;-71
2023/06/09 13:44:53;;;;;;;7.57;4.28;;;;;;;26.99;41.27;100038.16;4237267;28;25638;-70
2023/06/09 13:47:21;;;;;;;7.82;4.75;;;;;;;27.05;41.23;100027.94;4233694;28;21039;-74
2023/06/09 13:49:49;;;;;;;9.25;4.22;;;;;;;27.05;40.71;100028.75;4249743;28;20238;-72
2023/06/09 13:52:15;;;;;;;7.15;4.32;;;;;;;26.96;41.26;100022.03;4226425;28;23865;-71
2023/06/09 13:54:42;;;;;;;9.52;4.78;;;;;;;27.05;41.50;100020.41;4232170;28;21316;-71
2023/06/09 13:57:08;;;;;;;11.95;4.65;;;;;;;26.67;42.13;100024.28;4224443;28;20221;-71
2023/06/09 13:59:37;;;;;;;7.32;4.20;;;;;;;26.76;42.29;100019.94;4218836;28;22934;-72
2023/06/09 14:02:04;;;;;;;8.55;4.43;;;;;;;26.54;42.54;100014.44;4201017;28;20278;-71
2023/06/09 14:04:31;;;;;;;9.87;4.63;;;;;;;26.79;42.49;100011.06;4213792;28;20232;-74
2023/06/09 14:06:59;;;;;;;10.40;4.45;;;;;;;26.91;42.36;100018.38;4242566;28;22327;-73
2023/06/09 14:09:26;;;;;;;11.38;4.75;;;;;;;26.98;42.72;100017.03;4232175;28;23727;-73
2023/06/09 14:11:52;;;;;;;7.27;4.47;;;;;;;27.04;42.35;100017.91;4215394;28;20322;-71
2023/06/09 14:14:20;;;;;;;7.45;4.68;;;;;;;26.92;41.39;100017.28;4220405;28;20235;-73
2023/06/09 14:16:47;;;;;;;6.37;4.10;;;;;;;26.96;41.22;100010.09;4208064;28;20241;-74
2023/06/09 14:19:14;;;;;;;5.82;3.88;;;;;;;26.99;41.45;100015.13;4226157;28;21441;-71
2023/06/09 14:21:40;;;;;;;5.47;3.70;;;;;;;26.83;40.44;100009.44;4221570;28;22151;-74
2023/06/09 14:24:07;;;;;;;7.75;3.40;;;;;;;26.70;40.24;100012.66;4236958;28;21580;-73
2023/06/09 14:26:35;;;;;;;5.35;3.10;;;;;;;27.16;38.90;100009.38;4223901;28;20240;-74
2023/06/09 14:29:02;;;;;;;11.88;3.15;;;;;;;27.38;38.94;100016.72;4229378;28;20231;-73
2023/06/09 14:31:29;;;;;;;10.75;3.10;;;;;;;27.54;38.72;100017.66;4213926;28;20540;-73
2023/06/09 14:33:55;;;;;;;6.63;3.33;;;;;;;26.94;39.56;100009.50;4239903;28;21121;-73
2023/06/09 14:36:22;;;;;;;6.88;3.15;;;;;;;26.79;40.04;100001.91;4230875;28;20497;-73
2023/06/09 14:38:49;;;;;;;7.37;3.60;;;;;;;26.59;40.73;100014.47;4222684;28;20520;-73
2023/06/09 14:41:16;;;;;;;9.80;3.70;;;;;;;26.73;39.49;100007.41;4212459;28;21736;-76
2023/06/09 14:43:42;;;;;;;4.03;3.10;;;;;;;26.92;38.96;100008.97;4221092;28;21961;-75
2023/06/09 14:46:09;;;;;;;8.15;3.00;;;;;;;27.40;37.41;100008.97;4227911;28;20276;-72
2023/06/09 14:48:36;;;;;;;5.17;2.50;;;;;;;27.45;36.71;100007.06;4230428;28;20231;-72
2023/06/09 14:51:03;;;;;;;6.43;3.25;;;;;;;27.55;36.67;99997.09;4214785;28;20243;-70
2023/06/09 14:53:29;;;;;;;3.65;2.50;;;;;;;27.56;36.39;100013.53;4225291;28;20288;-75
2023/06/09 14:59:44;;;;;;;7.38;2.63;;;;;;;27.22;37.12;100011.06;4248073;28;20553;-68
2023/06/09 15:02:11;;;;;;;5.68;2.72;;;;;;;27.37;37.18;100018.69;4231133;28;21191;-72
2023/06/09 15:04:38;;;;;;;4.68;3.30;;;;;;;27.47;36.79;100002.06;4240396;28;20242;-71
2023/06/09 15:07:04;;;;;;;4.47;3.20;;;;;;;27.39;37.45;100002.53;4252980;28;20309;-71
2023/06/09 15:09:31;;;;;;;7.43;3.40;;;;;;;27.41;37.23;100005.91;4240613;28;21132;-73
2023/06/09 15:11:58;;;;;;;5.13;3.00;;;;;;;27.55;36.98;99999.88;4229094;28;20231;-65
2023/06/09 15:14:25;;;;;;;7.47;3.47;;;;;;;27.35;37.21;100002.25;4237235;28;20235;-71
2023/06/09 15:16:51;;;;;;;6.53;3.03;;;;;;;27.17;37.15;99998.00;4236504;28;20316;-68
2023/06/09 15:19:18;;;;;;;5.43;3.33;;;;;;;27.23;37.78;100006.38;4229491;28;20238;-69
2023/06/09 15:21:45;;;;;;;6.30;3.08;;;;;;;27.30;37.77;100009.75;4235966;28;20246;-69
2023/06/09 15:24:11;;;;;;;3.95;3.10;;;;;;;27.19;37.87;100011.63;4243308;28;20279;-69
2023/06/09 15:26:38;;;;;;;6.47;3.60;;;;;;;26.89;38.29;100011.16;4238242;28;21158;-67
2023/06/09 15:29:05;;;;;;;4.77;3.13;;;;;;;26.62;38.79;100016.75;4221895;28;20227;-69
2023/06/09 15:31:31;;;;;;;5.33;3.13;;;;;;;26.45;39.16;100013.25;4221647;28;21143;-69
2023/06/09 15:33:58;;;;;;;10.17;3.63;;;;;;;26.40;39.75;100019.59;4234766;28;20285;-67
2023/06/09 15:36:28;;;;;;;4.97;3.47;;;;;;;26.36;40.06;100019.28;4231632;28;20561;-66
2023/06/09 15:38:55;;;;;;;5.20;3.40;;;;;;;26.38;39.91;100021.81;4228935;28;20317;-67
2023/06/09 15:41:21;;;;;;;8.83;3.90;;;;;;;26.41;40.17;100015.72;4223400;28;20606;-71
2023/06/09 15:43:48;;;;;;;6.10;3.17;;;;;;;26.44;40.13;100014.38;4219796;28;20234;-68
2023/06/09 15:46:14;;;;;;;8.90;3.43;;;;;;;26.61;40.67;100014.25;4234960;28;22288;-66
2023/06/09 15:48:41;;;;;;;7.53;3.40;;;;;;;26.80;39.93;100014.69;4226317;28;21722;-66
2023/06/09 15:51:08;;;;;;;8.70;3.70;;;;;;;26.99;39.60;100015.13;4217760;28;20269;-66
2023/06/09 15:53:34;;;;;;;10.48;3.50;;;;;;;27.51;38.93;100021.81;4236315;28;20225;-68
2023/06/09 15:56:01;;;;;;;7.17;3.40;;;;;;;27.44;38.50;100018.44;4239722;28;20229;-63
2023/06/09 15:58:28;;;;;;;7.53;3.47;;;;;;;27.46;38.75;100028.19;4232427;28;21293;-65